x

Halibut Bank (46146) Wave Buoy

1:00 - Tue 2nd Jun 2015 All times are PDT. -7 hours from GMT.

  • Sig Wave height 2.0ft
  • Peak Period 3s
  • Wind
    16mph, 20mph gusts
  • Sea Temp 60°f
  • Ar Temp 59°f
  • Sea Pressure 1015.2mb
  • Halibut Bank
  • Halibut Bank

More Historic Weather Station data

Upgrade to MSW Pro to gain access to the past 30 days of data for over 8000 Wavebouys and Weather Stations around the globe.

Join Pro

Comparision Forecast

View Surf forecast
   
Ter 06/02 1:00 2ft 3s 16 20 mph 1015.2mb 60f 59f
12:00 2.5ft 3s 18 20 mph 1015mb 60f 58f
11:00 2.5ft 4s 18 20 mph 1014.6mb 60f 58f
10:00 2.5ft 4s 18 22 mph 1014.2mb 60f 58f
9:00 2.5ft 4s 20 22 mph 1014mb 60f 57f
8:00 2ft 3s 18 22 mph 1013.6mb 60f 57f
7:00 1.6ft 4s 16 18 mph 1013.2mb 61f 57f
6:00 1.6ft 3s 18 22 mph 1012.9mb 61f 56f
5:00 1.6ft 4s 13 16 mph 1012.6mb 61f 57f
4:00 2.5ft 4s 16 20 mph 1012.2mb 61f 57f
3:00 2.5ft 4s 18 22 mph 1011.9mb 61f 57f
2:00 3ft 4s 20 22 mph 1011.8mb 61f 59f
1:00 3ft 4s 20 25 mph 1011.8mb 62f 59f
12:00 2.5ft 4s 22 27 mph 1011.9mb 62f 60f
Seg 06/01 11:00 2.5ft 4s 20 25 mph 1011.8mb 62f 60f
10:00 2.5ft 4s 20 22 mph 1011.6mb 62f 60f
9:00 2.5ft 4s 20 25 mph 1011.5mb 62f 60f
8:00 2ft 4s 20 22 mph 1011.3mb 62f 60f
7:00 2.5ft 4s 20 22 mph 1011.2mb 63f 60f
6:00 2.5ft 4s 20 22 mph 1011mb 64f 60f
5:00 3ft 4s 18 20 mph 1011.1mb 62f 60f
4:00 3ft 4s 22 27 mph 1011.2mb 62f 59f
3:00 2.5ft 4s 22 25 mph 1011.1mb 64f 60f
2:00 2.5ft 3s 22 27 mph 1011.1mb 64f 61f
1:00 2ft 4s 22 25 mph 1011.1mb 64f 62f
12:00 1.6ft 3s 20 25 mph 1011.2mb 64f 61f
11:00 1ft 2s 18 20 mph 1010.9mb 66f 62f
10:00 0.7ft 3s 16 18 mph 1010.5mb 67f 63f
9:00 0.7ft 3s 2
mph
1010.3mb 66f 66f
8:00 0.7ft 3s 2
mph
1009.7mb 65f 65f
7:00 0.3ft 2s 4 7 mph 1009.2mb 63f 64f
6:00 0.3ft 5s 2
mph
1008.7mb 64f 65f
5:00 0.3ft 5s 7 9 mph 1008.2mb 64f 64f
4:00 0.3ft 2s 4
mph
1008.1mb 65f 65f
3:00 0.3ft 2s 4 7 mph 1008mb 65f 65f
2:00 0.3ft 6s 7 9 mph 1008mb 65f 65f
1:00 0.3ft 3s 2 4 mph 1008.6mb 64f 66f
12:00 0.3ft 5s 2 4 mph 1008mb 65f 65f
Dom 05/31 11:00 0.3ft 6s 4
mph
1007.9mb 65f 65f
10:00 0.3ft 3s 4
mph
1008.5mb 66f 65f
9:00 0.3ft 6s 7
mph
1008.7mb 65f 65f
8:00 0.3ft 2s 4
mph
1008.5mb 66f 66f
7:00 0.7ft 5s 2
mph
1008.9mb 68f 67f
6:00 0.3ft 3s 4
mph
1009.2mb 69f 67f
5:00 0.3ft 4s 2
mph
1009.4mb 69f 67f
3:00 0.7ft 4s  -  2 mph 1010.9mb 68f 65f
2:00 0.3ft 2s 2
mph
1011.6mb 67f 65f
1:00 0.3ft 2s 2 4 mph 1012mb 67f 63f
12:00 0.3ft 4s 2
mph
1012.4mb 67f 62f
11:00 0.3ft 3s 2 4 mph 1012.8mb 66f 62f
10:00 0.7ft 4s 2 4 mph 1013.3mb 64f 61f
9:00 0.3ft 2s 4 7 mph 1013.3mb 65f 60f
8:00 0.7ft 3s 2 4 mph 1013.1mb 65f 60f
7:00 0.7ft 3s 7 9 mph 1013.1mb 65f 60f
6:00 0.7ft 3s 4 7 mph 1012.9mb 64f 60f
5:00 0.7ft 2s 7
mph
1012.7mb 64f 60f
4:00 0.7ft 2s 9 11 mph 1012.7mb 64f 60f
3:00 0.7ft 2s 9 11 mph 1012.7mb 64f 61f
2:00 0.7ft 2s 9
mph
1012.7mb 65f 62f
1:00 0.3ft 4s 9
mph
1012.8mb 65f 63f
12:00 0.3ft 3s 9
mph
1012.5mb 66f 64f
Sáb 05/30 11:00 0.7ft 6s 7
mph
1012.5mb 65f 64f
10:00 0.7ft 2s 7 9 mph 1012.3mb 65f 64f
9:00 0.7ft 4s 7 9 mph 1012mb 66f 64f
8:00 0.7ft 3s 7
mph
1011.8mb 66f 64f
7:00 1ft 7s 4
mph
1011.9mb 67f 64f
6:00 1ft 3s 4 7 mph 1012.1mb 67f 64f
5:00 1ft 3s 7
mph
1012.5mb 67f 64f
4:00 1ft 3s 9 11 mph 1012.9mb 67f 63f
3:00 1ft 3s 11
mph
1013.3mb 67f 63f
2:00 1ft 3s 11 13 mph 1013.4mb 67f 63f
1:00 1ft 3s 9 11 mph 1013.8mb 66f 62f
12:00 1.3ft 3s 11 13 mph 1013.7mb 66f 62f
11:00 2ft 4s 13 16 mph 1013.4mb 65f 61f
10:00 2ft 4s 13 16 mph 1013.5mb 65f 60f
9:00 1.6ft 4s 13 18 mph 1013.7mb 66f 59f
8:00 1.3ft 3s 13
mph
1013.4mb 66f 60f
7:00 1ft 3s 13
mph
1013mb 66f 60f
6:00 1ft 3s 9 11 mph 1012.5mb 66f 61f
5:00 1.3ft 4s 9 11 mph 1012mb 66f 63f
4:00 1.3ft 3s 11 13 mph 1011.7mb 66f 64f
3:00 1.3ft 4s 11 13 mph 1011.5mb 67f 65f
2:00 1.3ft 4s 4 7 mph 1011.4mb 67f 66f
1:00 1ft 3s 13 16 mph 1011.3mb 67f 66f
12:00 0.3ft 6s 9 13 mph 1011.3mb 67f 67f
Sex 05/29 11:00 0.3ft 6s 7 11 mph 1011.2mb 67f 67f
10:00 0.3ft 3s  -  mph 1011.1mb 67f 67f